createdAt,value
2023-05-14T00:01:53.006Z,80.76
2023-05-14T00:06:48.980Z,80.58
2023-05-14T00:11:19.238Z,80.59
2023-05-14T00:15:48.632Z,80.42
2023-05-14T00:39:18.393Z,80.07
2023-05-14T00:43:44.407Z,79.85
2023-05-14T00:47:50.864Z,80.23
2023-05-14T00:52:09.281Z,80.70
2023-05-14T00:56:16.490Z,80.28
2023-05-14T01:00:21.088Z,80.14
2023-05-14T01:04:44.692Z,79.79
2023-05-14T01:08:59.667Z,80.21
2023-05-14T01:13:06.257Z,81.63
2023-05-14T01:17:09.143Z,82.07
2023-05-14T01:21:41.430Z,83.10
2023-05-14T01:25:48.116Z,83.80
2023-05-14T01:30:32.177Z,84.43
2023-05-14T01:34:57.554Z,84.50
2023-05-14T01:39:17.554Z,84.28
2023-05-14T01:43:20.710Z,83.72
2023-05-14T01:47:45.826Z,83.63
2023-05-14T01:56:57.636Z,82.09
2023-05-14T02:01:09.500Z,82.57
2023-05-14T02:05:20.424Z,82.49
2023-05-14T02:14:11.270Z,81.90
2023-05-14T02:18:27.400Z,81.59
2023-05-14T02:22:41.535Z,81.57
2023-05-14T02:26:46.270Z,80.92
2023-05-14T02:31:15.013Z,80.79
2023-05-14T02:35:20.133Z,80.39
2023-05-14T02:39:41.110Z,80.05
2023-05-14T02:44:06.661Z,79.49
2023-05-14T02:48:21.262Z,78.87
2023-05-14T02:52:44.198Z,78.28
2023-05-14T02:56:52.057Z,78.69
2023-05-14T03:00:53.709Z,78.69
2023-05-14T03:05:18.992Z,80.21
2023-05-14T03:14:20.698Z,81.55
2023-05-14T03:18:41.403Z,80.57
2023-05-14T03:22:49.007Z,79.31
2023-05-14T03:26:51.645Z,78.93
2023-05-14T03:31:14.305Z,79.21
2023-05-14T03:35:22.104Z,77.97
2023-05-14T03:39:37.249Z,76.82
2023-05-14T03:43:45.097Z,75.93
2023-05-14T03:47:52.010Z,75.18
2023-05-14T03:52:04.575Z,72.97
2023-05-14T03:56:15.038Z,71.40
2023-05-14T04:00:19.177Z,68.44
2023-05-14T04:04:23.925Z,66.73
2023-05-14T04:08:25.877Z,64.77
2023-05-14T04:16:54.293Z,70.10
2023-05-14T04:20:55.179Z,71.60
2023-05-14T04:24:59.180Z,72.88
2023-05-14T04:29:06.764Z,72.69
2023-05-14T04:33:13.192Z,72.92
2023-05-14T04:37:18.284Z,72.25
2023-05-14T04:41:18.311Z,74.55
2023-05-14T04:45:22.335Z,73.97
2023-05-14T04:49:25.323Z,74.90
2023-05-14T04:53:26.786Z,74.80
2023-05-14T04:57:32.343Z,75.43
2023-05-14T05:01:34.795Z,75.17
2023-05-14T05:05:38.240Z,73.85
2023-05-14T05:09:38.595Z,73.40
2023-05-14T05:13:38.962Z,70.08
2023-05-14T05:17:40.835Z,68.20
2023-05-14T05:21:41.943Z,65.80
2023-05-14T05:25:42.700Z,65.13
2023-05-14T05:29:43.023Z,64.10
2023-05-14T05:33:47.554Z,63.10
2023-05-14T05:37:51.520Z,62.91
2023-05-14T05:41:54.819Z,59.59
2023-05-14T05:45:55.416Z,60.33
2023-05-14T05:50:02.232Z,59.99
2023-05-14T05:54:04.075Z,60.69
2023-05-14T05:58:05.112Z,59.09
2023-05-14T06:02:05.747Z,59.18
2023-05-14T06:06:08.812Z,58.81
2023-05-14T06:10:09.592Z,56.04
2023-05-14T06:46:02.092Z,55.94
2023-05-14T06:50:11.866Z,52.54
2023-05-14T06:54:18.225Z,39.33
2023-05-14T06:58:20.717Z,40.10
2023-05-14T07:02:23.628Z,38.86
2023-05-14T07:06:25.278Z,37.98
2023-05-14T07:10:26.548Z,38.85
2023-05-14T07:14:27.108Z,36.72
2023-05-14T07:18:33.948Z,36.11
2023-05-14T07:22:41.200Z,37.40
2023-05-14T07:26:41.330Z,36.99
2023-05-14T07:30:52.348Z,37.32
2023-05-14T07:34:54.974Z,37.54
2023-05-14T07:38:55.477Z,37.95
2023-05-14T07:42:56.121Z,37.38
2023-05-14T07:46:56.896Z,35.25
2023-05-14T07:51:06.535Z,34.78
2023-05-14T07:55:07.692Z,36.41
2023-05-14T07:59:11.345Z,36.78
2023-05-14T08:03:16.793Z,34.90
2023-05-14T08:07:28.751Z,34.41
2023-05-14T08:11:39.849Z,33.60
2023-05-14T08:15:42.951Z,33.98
2023-05-14T08:19:49.430Z,34.14
2023-05-14T08:23:53.253Z,33.46
2023-05-14T08:27:58.351Z,33.65
2023-05-14T08:32:05.775Z,34.22
2023-05-14T08:36:15.451Z,34.99
2023-05-14T08:40:18.391Z,33.17
2023-05-14T08:44:23.852Z,33.20
2023-05-14T08:48:31.608Z,33.25
2023-05-14T08:52:43.003Z,33.13
2023-05-14T08:56:51.704Z,32.53
2023-05-14T09:01:03.159Z,32.73
2023-05-14T09:05:13.397Z,32.43
2023-05-14T09:09:18.506Z,33.66
2023-05-14T09:13:47.283Z,33.93
2023-05-14T09:21:49.852Z,33.59
2023-05-14T11:34:10.318Z,33.92
2023-05-14T11:38:16.393Z,34.00
2023-05-14T11:42:18.601Z,34.30
2023-05-14T11:46:22.819Z,33.66
2023-05-14T11:50:30.393Z,33.58
2023-05-14T11:54:52.743Z,34.52
2023-05-14T11:59:03.628Z,34.45
2023-05-14T12:03:04.830Z,33.52
2023-05-14T12:07:13.120Z,34.32
2023-05-14T12:11:15.399Z,33.26
2023-05-14T12:15:18.556Z,33.23
2023-05-14T12:19:25.834Z,33.81
2023-05-14T12:23:32.436Z,34.40
2023-05-14T12:27:37.090Z,33.17
2023-05-14T12:31:38.516Z,32.81
2023-05-14T12:35:39.890Z,33.92
2023-05-14T12:39:41.627Z,34.26
2023-05-14T12:43:54.791Z,34.27
2023-05-14T12:47:55.088Z,34.10
2023-05-14T12:56:19.795Z,34.41
2023-05-14T13:00:22.365Z,34.67
2023-05-14T13:04:26.047Z,34.56
2023-05-14T13:08:29.068Z,34.48
2023-05-14T13:12:44.645Z,35.52
2023-05-14T13:17:16.931Z,34.61
2023-05-14T13:21:49.301Z,35.27
2023-05-14T13:25:58.157Z,35.65
2023-05-14T13:30:26.978Z,35.61
2023-05-14T13:34:36.284Z,34.58
2023-05-14T13:38:51.069Z,33.29
2023-05-14T13:43:13.246Z,33.51
2023-05-14T13:47:37.493Z,33.37
2023-05-14T13:52:11.091Z,32.21
2023-05-14T13:56:54.066Z,32.54
2023-05-14T14:07:12.490Z,33.40
2023-05-14T14:16:45.372Z,33.27
2023-05-14T14:21:19.318Z,33.35
2023-05-14T14:25:23.325Z,34.11
2023-05-14T14:29:27.276Z,34.06
2023-05-14T14:33:31.099Z,34.84
2023-05-14T14:37:32.535Z,34.81
2023-05-14T14:41:35.955Z,35.20
2023-05-14T14:45:36.441Z,34.89
2023-05-14T14:49:38.171Z,35.13
2023-05-14T14:53:41.578Z,35.05
2023-05-14T14:57:45.579Z,34.55
2023-05-14T15:01:51.154Z,34.35
2023-05-14T15:05:56.204Z,34.68
2023-05-14T15:10:05.623Z,34.73
2023-05-14T15:14:13.976Z,35.00
2023-05-14T15:18:18.721Z,35.08
2023-05-14T15:22:27.762Z,35.00
2023-05-14T15:26:33.593Z,35.54
2023-05-14T15:30:46.542Z,35.50
2023-05-14T15:35:05.722Z,34.40
2023-05-14T15:39:13.222Z,34.23
2023-05-14T15:48:10.336Z,35.21
2023-05-14T15:57:04.760Z,35.52
2023-05-14T16:01:21.505Z,35.42
2023-05-14T16:05:37.008Z,35.74
2023-05-14T16:09:41.172Z,36.41
2023-05-14T16:13:41.814Z,36.14
2023-05-14T16:17:42.724Z,36.58
2023-05-14T16:21:46.885Z,36.86
2023-05-14T16:25:48.654Z,37.05
2023-05-14T16:29:48.461Z,37.23
2023-05-14T16:34:12.005Z,37.24
2023-05-14T16:38:20.712Z,37.31
2023-05-14T16:42:22.794Z,37.50
2023-05-14T16:46:23.038Z,37.74
2023-05-14T16:50:23.409Z,36.88
2023-05-14T16:54:26.297Z,37.04
2023-05-14T16:58:26.369Z,37.18
2023-05-14T17:02:27.399Z,36.90
2023-05-14T17:06:27.814Z,37.29
2023-05-14T17:10:30.804Z,37.47
2023-05-14T17:14:31.558Z,38.03
2023-05-14T17:18:32.417Z,37.82
2023-05-14T17:22:32.700Z,37.51
2023-05-14T17:26:35.016Z,38.02
2023-05-14T17:30:34.478Z,37.83
2023-05-14T17:34:34.800Z,38.02
2023-05-14T17:38:39.793Z,37.95
2023-05-14T17:42:45.617Z,37.99
2023-05-14T17:46:47.790Z,38.45
2023-05-14T17:50:50.867Z,38.99
2023-05-14T17:54:50.657Z,39.51
2023-05-14T17:58:53.179Z,40.08
2023-05-14T18:02:54.648Z,40.20
2023-05-14T18:06:54.756Z,40.83
2023-05-14T18:10:54.598Z,40.43
2023-05-14T18:14:56.862Z,40.69
2023-05-14T18:18:58.046Z,40.40
2023-05-14T18:22:58.437Z,40.32
2023-05-14T18:26:58.134Z,40.53
2023-05-14T18:31:04.913Z,40.78
2023-05-14T18:35:07.746Z,41.11
2023-05-14T18:39:08.191Z,41.63
2023-05-14T18:43:08.029Z,42.12
2023-05-14T18:47:09.849Z,42.70
2023-05-14T18:51:11.197Z,42.98
2023-05-14T18:55:11.485Z,44.02
2023-05-14T18:59:12.706Z,44.08
2023-05-14T19:03:18.066Z,44.11
2023-05-14T19:07:18.662Z,44.00
2023-05-14T19:11:21.760Z,43.96
2023-05-14T19:15:23.070Z,44.36
2023-05-14T19:19:26.196Z,45.34
2023-05-14T19:23:26.613Z,45.55
2023-05-14T19:27:27.117Z,46.24
2023-05-14T19:31:29.162Z,47.55
2023-05-14T19:35:31.629Z,48.90
2023-05-14T19:39:31.322Z,50.23
2023-05-14T19:43:31.156Z,51.24
2023-05-14T19:47:31.876Z,53.21
2023-05-14T19:51:34.403Z,53.84
2023-05-14T19:55:35.045Z,54.66
2023-05-14T19:59:34.855Z,55.46
2023-05-14T20:03:36.603Z,55.70
2023-05-14T20:07:40.542Z,56.50
2023-05-14T20:11:41.047Z,56.95
2023-05-14T20:15:41.481Z,57.63
2023-05-14T20:19:42.071Z,57.89
2023-05-14T20:23:45.844Z,58.23
2023-05-14T20:27:49.233Z,58.20
2023-05-14T20:31:49.817Z,58.56
2023-05-14T20:35:53.023Z,58.53
2023-05-14T20:40:05.037Z,59.43
2023-05-14T20:44:09.071Z,58.40
2023-05-14T20:48:11.420Z,56.98
2023-05-14T20:52:11.890Z,56.55
2023-05-14T20:56:15.072Z,56.63
2023-05-14T21:00:15.714Z,57.81
2023-05-14T21:04:16.427Z,58.07
2023-05-14T21:08:19.468Z,59.00
2023-05-14T21:12:22.074Z,59.78
2023-05-14T21:16:22.933Z,61.10
2023-05-14T21:20:24.631Z,62.50
2023-05-14T21:24:28.229Z,64.01
2023-05-14T21:32:52.472Z,65.16
2023-05-14T21:36:52.921Z,65.98
2023-05-14T21:40:53.273Z,67.01
2023-05-14T21:44:55.551Z,67.75
2023-05-14T21:48:56.064Z,68.76
2023-05-14T21:52:56.618Z,68.57
2023-05-14T21:56:57.244Z,68.35
2023-05-14T22:01:03.548Z,68.28
2023-05-14T22:05:06.636Z,67.48
2023-05-14T22:09:09.232Z,66.90
2023-05-14T22:13:16.018Z,66.81
2023-05-14T22:17:24.615Z,67.83
2023-05-14T22:21:27.544Z,69.04
2023-05-14T22:25:28.592Z,70.26
2023-05-14T22:29:29.011Z,71.11
2023-05-14T22:33:39.378Z,71.43
2023-05-14T22:37:41.165Z,71.92
2023-05-14T22:41:42.813Z,72.33
2023-05-14T22:45:45.804Z,72.55
2023-05-14T22:49:49.337Z,73.00
2023-05-14T22:53:49.964Z,73.72
2023-05-14T22:57:54.007Z,74.21
2023-05-14T23:01:54.645Z,73.93
2023-05-14T23:05:57.842Z,73.99
2023-05-14T23:10:02.466Z,74.64
2023-05-14T23:14:03.320Z,75.13
2023-05-14T23:18:03.422Z,75.57
2023-05-14T23:22:06.350Z,75.71
2023-05-14T23:26:09.946Z,76.63
2023-05-14T23:30:11.199Z,77.57
2023-05-14T23:34:11.936Z,77.43
2023-05-14T23:38:14.944Z,78.10
2023-05-14T23:42:15.457Z,78.79
2023-05-14T23:46:15.868Z,79.04
2023-05-14T23:50:16.358Z,78.69
2023-05-14T23:54:18.857Z,78.48
2023-05-14T23:58:19.006Z,77.86
